createdAt,value
2019-02-16T00:02:17.890Z,1.09
2019-02-16T00:04:46.305Z,1.14
2019-02-16T00:07:14.748Z,1.23
2019-02-16T00:09:43.155Z,1.19
2019-02-16T00:12:11.604Z,1.13
2019-02-16T00:14:40.032Z,1.07
2019-02-16T00:17:08.471Z,0.99
2019-02-16T00:19:36.885Z,0.89
2019-02-16T00:22:05.332Z,0.88
2019-02-16T00:24:33.753Z,0.90
2019-02-16T00:27:02.199Z,1.00
2019-02-16T00:29:30.686Z,1.06
2019-02-16T00:31:59.120Z,1.10
2019-02-16T00:34:27.538Z,1.09
2019-02-16T00:36:55.981Z,0.95
2019-02-16T00:39:24.392Z,0.88
2019-02-16T00:41:52.836Z,0.72
2019-02-16T00:44:21.254Z,0.55
2019-02-16T00:46:49.705Z,0.44
2019-02-16T00:49:18.118Z,0.24
2019-02-16T00:51:46.561Z,0.20
2019-02-16T00:54:14.978Z,0.23
2019-02-16T00:56:43.418Z,0.22
2019-02-16T00:59:11.838Z,0.22
2019-02-16T01:01:40.282Z,0.20
2019-02-16T01:04:08.765Z,0.24
2019-02-16T01:06:37.216Z,0.37
2019-02-16T01:09:06.874Z,0.54
2019-02-16T01:11:35.312Z,0.66
2019-02-16T01:14:03.794Z,0.76
2019-02-16T01:16:32.235Z,0.69
2019-02-16T01:19:00.658Z,0.56
2019-02-16T01:21:29.175Z,0.61
2019-02-16T01:23:57.590Z,0.60
2019-02-16T01:26:26.047Z,0.60
2019-02-16T01:28:54.465Z,0.67
2019-02-16T01:31:22.909Z,0.66
2019-02-16T01:33:51.338Z,0.61
2019-02-16T01:36:19.754Z,0.46
2019-02-16T01:38:48.196Z,0.31
2019-02-16T01:41:16.610Z,0.19
2019-02-16T01:43:45.055Z,0.11
2019-02-16T01:46:13.472Z,-0.03
2019-02-16T01:48:41.926Z,-0.12
2019-02-16T01:51:10.358Z,-0.08
2019-02-16T01:53:38.801Z,0.05
2019-02-16T01:56:07.234Z,0.13
2019-02-16T01:58:35.671Z,0.15
2019-02-16T02:01:04.090Z,0.13
2019-02-16T02:03:32.529Z,0.16
2019-02-16T02:06:01.024Z,0.22
2019-02-16T02:08:29.477Z,0.34
2019-02-16T02:10:57.900Z,0.42
2019-02-16T02:13:26.346Z,0.34
2019-02-16T02:15:54.770Z,0.18
2019-02-16T02:18:23.233Z,-0.04
2019-02-16T02:20:51.649Z,-0.20
2019-02-16T02:23:20.099Z,-0.34
2019-02-16T02:25:48.523Z,-0.36
2019-02-16T02:28:16.978Z,-0.35
2019-02-16T02:30:45.405Z,-0.33
2019-02-16T02:33:13.858Z,-0.14
2019-02-16T02:35:42.286Z,-0.03
2019-02-16T02:38:10.736Z,0.00
2019-02-16T02:40:39.159Z,0.03
2019-02-16T02:43:07.623Z,0.16
2019-02-16T02:45:36.038Z,0.23
2019-02-16T02:48:04.485Z,0.18
2019-02-16T02:50:32.907Z,0.15
2019-02-16T02:53:01.355Z,0.06
2019-02-16T02:55:29.769Z,-0.15
2019-02-16T02:57:58.218Z,-0.23
2019-02-16T03:00:26.648Z,-0.22
2019-02-16T03:02:55.096Z,-0.32
2019-02-16T03:05:23.605Z,-0.17
2019-02-16T03:07:52.055Z,-0.12
2019-02-16T03:10:20.471Z,-0.01
2019-02-16T03:12:48.927Z,0.07
2019-02-16T03:15:17.343Z,0.11
2019-02-16T03:17:45.794Z,-0.03
2019-02-16T03:20:14.279Z,-0.19
2019-02-16T03:23:17.137Z,-0.29
2019-02-16T03:26:06.688Z,-0.32
2019-02-16T03:28:41.338Z,-0.41
2019-02-16T03:31:24.495Z,-0.34
2019-02-16T03:34:14.232Z,-0.10
2019-02-16T03:37:00.307Z,0.08
2019-02-16T03:39:28.751Z,0.38
2019-02-16T03:41:57.173Z,0.56
2019-02-16T03:44:25.622Z,0.75
2019-02-16T03:46:54.040Z,0.89
2019-02-16T03:49:22.494Z,0.96
2019-02-16T03:51:50.919Z,1.07
2019-02-16T03:54:19.360Z,1.05
2019-02-16T03:56:47.777Z,1.06
2019-02-16T03:59:16.224Z,1.07
2019-02-16T04:01:44.646Z,1.12
2019-02-16T04:04:13.099Z,1.16
2019-02-16T04:06:41.525Z,1.21
2019-02-16T04:09:09.973Z,1.23
2019-02-16T04:11:38.386Z,1.29
2019-02-16T04:14:06.797Z,1.25
2019-02-16T04:16:35.242Z,1.12
2019-02-16T04:19:03.671Z,1.10
2019-02-16T04:21:32.111Z,1.05
2019-02-16T04:24:00.532Z,1.05
2019-02-16T04:26:28.972Z,0.92
2019-02-16T04:28:57.398Z,0.92
2019-02-16T04:31:25.843Z,1.04
2019-02-16T04:33:54.260Z,0.95
2019-02-16T04:36:22.698Z,1.03
2019-02-16T04:38:51.113Z,1.20
2019-02-16T04:41:19.557Z,1.27
2019-02-16T04:43:48.157Z,1.34
2019-02-16T04:46:16.601Z,1.40
2019-02-16T04:48:45.015Z,1.40
2019-02-16T04:51:13.461Z,1.38
2019-02-16T04:53:41.878Z,1.41
2019-02-16T04:56:10.386Z,1.32
2019-02-16T04:58:38.803Z,1.32
2019-02-16T05:01:07.250Z,1.32
2019-02-16T05:03:35.673Z,1.32
2019-02-16T05:06:04.118Z,1.36
2019-02-16T05:08:32.536Z,1.36
2019-02-16T05:11:00.982Z,1.34
2019-02-16T05:13:29.406Z,1.39
2019-02-16T05:15:57.849Z,1.42
2019-02-16T05:18:26.272Z,1.44
2019-02-16T05:20:54.723Z,1.41
2019-02-16T05:23:23.135Z,1.28
2019-02-16T05:25:51.591Z,1.18
2019-02-16T05:28:20.009Z,1.12
2019-02-16T05:30:48.447Z,1.02
2019-02-16T05:33:16.873Z,0.93
2019-02-16T05:35:45.291Z,0.82
2019-02-16T05:38:13.734Z,0.76
2019-02-16T05:40:42.148Z,0.75
2019-02-16T05:43:10.597Z,0.78
2019-02-16T05:45:39.012Z,0.78
2019-02-16T05:48:07.531Z,0.81
2019-02-16T05:50:35.946Z,0.88
2019-02-16T05:53:04.378Z,0.89
2019-02-16T05:55:32.809Z,0.93
2019-02-16T05:58:01.260Z,0.93
2019-02-16T06:00:31.526Z,0.99
2019-02-16T06:02:59.971Z,1.01
2019-02-16T06:05:28.452Z,0.90
2019-02-16T06:07:56.890Z,0.69
2019-02-16T06:10:25.313Z,0.51
2019-02-16T06:12:53.749Z,0.40
2019-02-16T06:15:22.174Z,0.33
2019-02-16T06:17:50.628Z,0.29
2019-02-16T06:20:19.054Z,0.29
2019-02-16T06:22:47.491Z,0.23
2019-02-16T06:25:15.911Z,0.17
2019-02-16T06:27:44.353Z,0.07
2019-02-16T06:30:12.779Z,-0.02
2019-02-16T06:32:41.233Z,-0.13
2019-02-16T06:35:27.448Z,-0.13
2019-02-16T06:37:55.898Z,-0.06
2019-02-16T06:40:24.326Z,-0.06
2019-02-16T06:42:52.779Z,-0.01
2019-02-16T06:45:21.192Z,0.03
2019-02-16T06:47:49.640Z,0.02
2019-02-16T06:50:18.061Z,0.05
2019-02-16T06:52:46.499Z,0.09
2019-02-16T06:55:14.913Z,0.14
2019-02-16T06:57:45.007Z,0.18
2019-02-16T07:00:15.168Z,0.25
2019-02-16T07:02:43.615Z,0.28
2019-02-16T07:05:12.028Z,0.24
2019-02-16T07:07:40.476Z,0.03
2019-02-16T07:10:09.666Z,-0.24
2019-02-16T07:12:38.114Z,-0.40
2019-02-16T07:15:07.381Z,-0.50
2019-02-16T07:17:53.908Z,-0.52
2019-02-16T07:20:22.895Z,-0.44
2019-02-16T07:22:51.345Z,-0.30
2019-02-16T07:25:19.770Z,-0.12
2019-02-16T07:27:48.213Z,0.12
2019-02-16T07:30:16.633Z,0.44
2019-02-16T07:32:45.116Z,0.70
2019-02-16T07:35:13.531Z,0.91
2019-02-16T07:37:41.952Z,1.13
2019-02-16T07:40:10.461Z,1.36
2019-02-16T07:42:49.458Z,1.52
2019-02-16T07:45:24.201Z,1.75
2019-02-16T07:47:59.930Z,1.93
2019-02-16T07:50:29.982Z,2.09
2019-02-16T07:53:02.956Z,2.26
2019-02-16T07:55:38.718Z,2.39
2019-02-16T07:58:11.444Z,2.58
2019-02-16T08:00:47.354Z,2.74
2019-02-16T08:03:20.119Z,2.87
2019-02-16T08:05:52.738Z,3.00
2019-02-16T08:08:22.866Z,3.12
2019-02-16T08:10:52.945Z,3.26
2019-02-16T08:13:29.186Z,3.41
2019-02-16T08:16:08.258Z,3.54
2019-02-16T08:18:44.226Z,3.70
2019-02-16T08:21:30.591Z,3.76
2019-02-16T08:24:00.674Z,4.09
2019-02-16T08:26:33.653Z,4.09
2019-02-16T08:29:06.553Z,4.42
2019-02-16T08:31:36.616Z,4.56
2019-02-16T08:34:09.685Z,4.56
2019-02-16T08:36:55.001Z,4.73
2019-02-16T08:39:25.089Z,5.02
2019-02-16T08:42:00.656Z,5.09
2019-02-16T08:44:30.746Z,5.09
2019-02-16T08:47:10.024Z,5.46
2019-02-16T08:49:40.100Z,5.60
2019-02-16T08:52:12.950Z,5.71
2019-02-16T08:54:43.086Z,5.71
2019-02-16T08:57:29.306Z,5.85
2019-02-16T09:00:08.433Z,5.94
2019-02-16T09:02:41.377Z,6.13
2019-02-16T09:05:17.365Z,6.24
2019-02-16T09:07:47.420Z,6.39
2019-02-16T09:10:23.220Z,6.52
2019-02-16T09:13:05.469Z,6.66
2019-02-16T09:15:38.238Z,6.76
2019-02-16T09:18:26.205Z,6.87
2019-02-16T09:21:14.762Z,6.96
2019-02-16T09:23:58.866Z,7.09
2019-02-16T09:26:39.257Z,7.26
2019-02-16T09:29:09.315Z,7.42
2019-02-16T09:31:48.460Z,7.55
2019-02-16T09:34:21.173Z,7.66
2019-02-16T09:36:56.998Z,7.79
2019-02-16T09:39:39.084Z,7.85
2019-02-16T09:42:09.176Z,7.93
2019-02-16T09:44:41.752Z,8.03
2019-02-16T09:47:14.602Z,8.15
2019-02-16T09:49:44.653Z,8.22
2019-02-16T09:52:26.676Z,8.33
2019-02-16T09:55:05.896Z,8.44
2019-02-16T09:57:44.917Z,8.56
2019-02-16T10:00:29.759Z,8.66
2019-02-16T10:03:16.345Z,8.75
2019-02-16T10:05:46.398Z,8.84
2019-02-16T10:08:16.474Z,8.94
2019-02-16T10:10:46.534Z,9.06
2019-02-16T10:13:28.137Z,9.06
2019-02-16T10:16:07.401Z,9.20
2019-02-16T10:18:43.469Z,9.31
2019-02-16T10:21:13.528Z,9.40
2019-02-16T10:23:55.870Z,9.48
2019-02-16T10:26:25.984Z,9.54
2019-02-16T10:29:02.064Z,9.61
2019-02-16T10:31:32.123Z,9.70
2019-02-16T10:34:17.094Z,9.76
2019-02-16T10:36:47.224Z,10.01
2019-02-16T10:39:17.294Z,10.02
2019-02-16T10:41:59.330Z,10.16
2019-02-16T10:44:38.403Z,10.23
2019-02-16T10:47:10.953Z,10.45
2019-02-16T10:49:41.012Z,10.43
2019-02-16T10:52:13.783Z,10.43
2019-02-16T10:54:46.377Z,10.41
2019-02-16T10:57:19.226Z,10.57
2019-02-16T10:59:58.452Z,10.62
2019-02-16T11:02:31.016Z,10.66
2019-02-16T11:05:01.071Z,10.71
2019-02-16T11:07:31.178Z,10.79
2019-02-16T11:10:01.236Z,11.00
2019-02-16T11:12:37.196Z,11.04
2019-02-16T11:15:10.659Z,11.05
2019-02-16T11:17:43.494Z,11.24
2019-02-16T11:20:13.564Z,11.43
2019-02-16T11:22:46.811Z,11.61
2019-02-16T11:25:34.724Z,11.63
2019-02-16T11:28:20.671Z,11.57
2019-02-16T11:31:07.152Z,11.63
2019-02-16T11:33:37.248Z,11.64
2019-02-16T11:36:13.031Z,11.76
2019-02-16T11:38:43.112Z,11.86
2019-02-16T11:41:24.943Z,11.94
2019-02-16T11:44:12.835Z,11.94
2019-02-16T11:46:42.901Z,11.95
2019-02-16T11:49:12.990Z,12.01
2019-02-16T11:51:43.110Z,12.10
2019-02-16T11:54:19.150Z,12.22
2019-02-16T11:56:49.277Z,12.24
2019-02-16T11:59:22.036Z,12.32
2019-02-16T12:01:54.822Z,12.22
2019-02-16T12:04:27.672Z,12.22
2019-02-16T12:07:12.768Z,12.30
2019-02-16T12:10:01.034Z,12.39
2019-02-16T12:12:33.555Z,12.48
2019-02-16T12:15:12.671Z,12.49
2019-02-16T12:17:42.739Z,12.59
2019-02-16T12:20:33.621Z,12.62
2019-02-16T12:23:02.226Z,12.67
2019-02-16T12:25:34.739Z,12.60
2019-02-16T12:28:04.795Z,12.52
2019-02-16T12:30:34.885Z,12.51
2019-02-16T12:33:04.935Z,12.55
2019-02-16T12:35:35.025Z,12.52
2019-02-16T12:38:05.088Z,12.51
2019-02-16T12:40:53.562Z,12.57
2019-02-16T12:43:39.452Z,12.58
2019-02-16T12:46:25.800Z,12.60
2019-02-16T12:49:02.022Z,12.72
2019-02-16T12:51:41.047Z,12.87
2019-02-16T12:54:20.126Z,12.93
2019-02-16T12:56:53.170Z,13.02
2019-02-16T12:59:25.970Z,13.01
2019-02-16T13:01:56.062Z,13.00
2019-02-16T13:04:32.101Z,13.02
2019-02-16T13:07:05.209Z,13.10
2019-02-16T13:09:40.245Z,13.19
2019-02-16T13:12:16.024Z,13.28
2019-02-16T13:14:51.791Z,13.26
2019-02-16T13:17:24.343Z,13.32
2019-02-16T13:20:00.452Z,13.33
2019-02-16T13:22:30.525Z,13.30
2019-02-16T13:25:09.821Z,13.23
2019-02-16T13:27:39.902Z,13.23
2019-02-16T13:30:12.879Z,13.25
2019-02-16T13:32:42.967Z,13.30
2019-02-16T13:35:15.986Z,13.44
2019-02-16T13:38:02.275Z,13.38
2019-02-16T13:40:38.051Z,13.37
2019-02-16T13:43:11.204Z,13.38
2019-02-16T13:45:49.959Z,13.40
2019-02-16T13:48:20.046Z,13.50
2019-02-16T13:50:50.108Z,13.53
2019-02-16T13:53:22.916Z,13.45
2019-02-16T13:56:08.257Z,13.35
2019-02-16T13:58:40.777Z,13.36
2019-02-16T14:01:10.847Z,13.32
2019-02-16T14:03:40.934Z,13.30
2019-02-16T14:06:17.098Z,13.33
2019-02-16T14:08:47.197Z,13.38
2019-02-16T14:11:22.982Z,13.35
2019-02-16T14:14:02.204Z,13.35
2019-02-16T14:16:35.231Z,13.25
2019-02-16T14:19:03.675Z,13.22
2019-02-16T14:21:32.094Z,13.16
2019-02-16T14:24:00.541Z,13.18
2019-02-16T14:26:28.966Z,13.14
2019-02-16T14:28:57.407Z,13.08
2019-02-16T14:31:28.418Z,13.11
2019-02-16T14:33:57.212Z,13.15
2019-02-16T14:36:25.803Z,13.21
2019-02-16T14:38:59.681Z,13.30
2019-02-16T14:41:28.110Z,13.35
2019-02-16T14:43:56.548Z,13.42
2019-02-16T14:46:24.967Z,13.48
2019-02-16T14:48:53.494Z,13.43
2019-02-16T14:51:21.911Z,13.38
2019-02-16T14:53:50.345Z,13.35
2019-02-16T14:56:18.760Z,13.28
2019-02-16T14:58:47.207Z,13.17
2019-02-16T15:01:15.623Z,13.07
2019-02-16T15:03:44.071Z,12.96
2019-02-16T15:06:12.491Z,12.98
2019-02-16T15:08:40.905Z,12.98
2019-02-16T15:11:09.348Z,12.96
2019-02-16T15:13:37.771Z,12.92
2019-02-16T15:16:06.222Z,12.83
2019-02-16T15:18:34.640Z,12.69
2019-02-16T15:21:03.089Z,12.51
2019-02-16T15:23:31.507Z,12.41
2019-02-16T15:26:01.293Z,12.25
2019-02-16T15:28:29.956Z,12.08
2019-02-16T15:30:58.398Z,11.92
2019-02-16T15:33:26.812Z,11.78
2019-02-16T15:35:55.264Z,11.65
2019-02-16T15:38:23.677Z,11.56
2019-02-16T15:40:52.121Z,11.45
2019-02-16T15:43:20.536Z,11.33
2019-02-16T15:45:48.989Z,11.31
2019-02-16T15:48:17.417Z,11.27
2019-02-16T15:50:45.855Z,11.14
2019-02-16T15:53:14.274Z,10.96
2019-02-16T15:55:42.719Z,10.78
2019-02-16T15:58:11.295Z,10.60
2019-02-16T16:00:39.831Z,10.44
2019-02-16T16:03:08.264Z,10.30
2019-02-16T16:05:36.697Z,10.18
2019-02-16T16:08:15.528Z,10.06
2019-02-16T16:10:45.607Z,9.96
2019-02-16T16:13:18.079Z,9.84
2019-02-16T16:15:57.300Z,9.72
2019-02-16T16:18:39.283Z,9.59
2019-02-16T16:21:12.209Z,9.49
2019-02-16T16:23:44.977Z,9.40
2019-02-16T16:26:32.922Z,9.36
2019-02-16T16:29:06.147Z,9.30
2019-02-16T16:31:36.229Z,9.22
2019-02-16T16:34:18.073Z,9.10
2019-02-16T16:36:48.224Z,8.97
2019-02-16T16:39:23.973Z,8.99
2019-02-16T16:41:54.038Z,9.06
2019-02-16T16:44:26.769Z,9.11
2019-02-16T16:46:59.600Z,9.11
2019-02-16T16:49:45.769Z,9.09
2019-02-16T16:52:31.689Z,9.09
2019-02-16T16:55:13.865Z,9.06
2019-02-16T16:57:44.019Z,8.96
2019-02-16T17:00:14.145Z,8.87
2019-02-16T17:02:56.648Z,8.83
2019-02-16T17:05:26.710Z,8.71
2019-02-16T17:08:12.998Z,8.58
2019-02-16T17:11:01.148Z,8.50
2019-02-16T17:13:40.306Z,8.48
2019-02-16T17:16:13.023Z,8.37
2019-02-16T17:18:43.099Z,8.38
2019-02-16T17:21:29.274Z,8.38
2019-02-16T17:24:14.175Z,8.34
2019-02-16T17:26:53.216Z,8.27
2019-02-16T17:29:29.137Z,8.29
2019-02-16T17:32:15.725Z,8.23
2019-02-16T17:34:48.503Z,8.19
2019-02-16T17:37:34.858Z,8.09
2019-02-16T17:40:14.276Z,8.04
2019-02-16T17:42:50.153Z,7.97
2019-02-16T17:45:20.206Z,7.98
2019-02-16T17:48:06.513Z,7.94
2019-02-16T17:50:39.570Z,7.73
2019-02-16T17:53:18.371Z,7.53
2019-02-16T17:56:06.233Z,7.48
2019-02-16T17:58:36.322Z,7.46
2019-02-16T18:01:12.368Z,7.42
2019-02-16T18:03:48.585Z,7.36
2019-02-16T18:06:18.647Z,7.25
2019-02-16T18:08:48.729Z,7.23
2019-02-16T18:11:18.788Z,6.95
2019-02-16T18:13:54.592Z,6.65
2019-02-16T18:16:33.607Z,6.54
2019-02-16T18:19:03.700Z,6.41
2019-02-16T18:21:33.755Z,6.34
2019-02-16T18:24:03.837Z,6.14
2019-02-16T18:26:36.584Z,5.90
2019-02-16T18:29:15.527Z,5.90
2019-02-16T18:32:01.674Z,5.91
2019-02-16T18:34:37.558Z,5.99
2019-02-16T18:37:24.050Z,6.00
2019-02-16T18:40:10.941Z,5.89
2019-02-16T18:42:41.060Z,5.85
2019-02-16T18:45:13.889Z,5.84
2019-02-16T18:47:43.959Z,5.77
2019-02-16T18:50:22.646Z,5.66
2019-02-16T18:52:55.116Z,5.51
2019-02-16T18:55:28.156Z,5.28
2019-02-16T18:57:58.216Z,5.28
2019-02-16T19:00:31.267Z,5.20
2019-02-16T19:03:07.054Z,4.95
2019-02-16T19:05:49.206Z,4.95
2019-02-16T19:08:34.629Z,4.84
2019-02-16T19:11:19.663Z,4.84
2019-02-16T19:14:07.737Z,4.78
2019-02-16T19:16:40.603Z,4.90
2019-02-16T19:19:28.642Z,4.90
2019-02-16T19:22:04.187Z,4.58
2019-02-16T19:24:34.233Z,4.58
2019-02-16T19:27:20.835Z,4.24
2019-02-16T19:29:50.904Z,4.14
2019-02-16T19:32:20.999Z,4.22
2019-02-16T19:34:59.997Z,4.22
2019-02-16T19:37:35.818Z,4.33
2019-02-16T19:40:09.257Z,4.46
2019-02-16T19:42:39.344Z,4.34
2019-02-16T19:45:13.164Z,4.34
2019-02-16T19:47:43.242Z,4.21
2019-02-16T19:50:15.824Z,4.01
2019-02-16T19:52:45.914Z,4.01
2019-02-16T19:55:27.854Z,4.13
2019-02-16T19:58:00.678Z,3.71
2019-02-16T20:00:33.500Z,3.71
2019-02-16T20:03:03.578Z,3.62
2019-02-16T20:05:45.647Z,3.64
2019-02-16T20:08:15.741Z,3.70
2019-02-16T20:10:45.799Z,3.80
2019-02-16T20:13:21.347Z,3.90
2019-02-16T20:15:54.150Z,3.90
2019-02-16T20:18:36.411Z,3.88
2019-02-16T20:21:21.445Z,3.78
2019-02-16T20:23:57.228Z,3.78
2019-02-16T20:26:42.256Z,3.81
2019-02-16T20:29:18.337Z,3.58
2019-02-16T20:31:48.398Z,3.58
2019-02-16T20:34:21.374Z,3.54
2019-02-16T20:37:07.873Z,3.65
2019-02-16T20:39:49.930Z,3.65
2019-02-16T20:42:38.245Z,3.46
2019-02-16T20:45:12.737Z,3.46
2019-02-16T20:47:54.883Z,3.24
2019-02-16T20:50:36.743Z,3.17
2019-02-16T20:53:25.107Z,3.17
2019-02-16T20:55:55.167Z,2.86
2019-02-16T20:58:27.927Z,2.86
2019-02-16T21:01:06.960Z,2.81
2019-02-16T21:03:39.485Z,2.77
2019-02-16T21:06:21.772Z,2.77
2019-02-16T21:08:58.058Z,2.76
2019-02-16T21:11:28.124Z,2.70
2019-02-16T21:13:58.211Z,2.65
2019-02-16T21:16:28.272Z,2.64
2019-02-16T21:19:07.514Z,2.62
2019-02-16T21:21:37.567Z,2.61
2019-02-16T21:24:07.654Z,2.60
2019-02-16T21:26:43.417Z,2.69
2019-02-16T21:29:29.891Z,2.75
2019-02-16T21:32:05.499Z,2.85
2019-02-16T21:34:44.513Z,2.86
2019-02-16T21:37:30.794Z,2.93
2019-02-16T21:40:03.847Z,2.89
2019-02-16T21:42:33.911Z,2.76
2019-02-16T21:45:06.882Z,2.72
2019-02-16T21:47:39.949Z,2.71
2019-02-16T21:50:16.989Z,2.55
2019-02-16T21:52:55.951Z,2.48
2019-02-16T21:55:42.375Z,2.55
2019-02-16T21:58:12.432Z,2.61
2019-02-16T22:00:42.524Z,2.52
2019-02-16T22:03:12.575Z,2.50
2019-02-16T22:05:42.666Z,2.52
2019-02-16T22:08:12.727Z,2.55
2019-02-16T22:10:45.726Z,2.56
2019-02-16T22:13:14.198Z,2.48
2019-02-16T22:15:42.652Z,2.30
2019-02-16T22:18:11.075Z,2.25
2019-02-16T22:20:39.520Z,2.32
2019-02-16T22:23:07.944Z,2.41
2019-02-16T22:25:36.396Z,2.43
2019-02-16T22:28:04.820Z,2.41
2019-02-16T22:30:33.269Z,2.24
2019-02-16T22:33:01.692Z,2.21
2019-02-16T22:35:30.141Z,2.21
2019-02-16T22:37:58.560Z,2.24
2019-02-16T22:40:26.981Z,2.31
2019-02-16T22:42:55.434Z,2.29
2019-02-16T22:45:23.849Z,2.34
2019-02-16T22:47:52.304Z,2.38
2019-02-16T22:50:21.201Z,2.41
2019-02-16T22:52:49.647Z,2.47
2019-02-16T22:55:18.068Z,2.50
2019-02-16T22:57:46.516Z,2.46
2019-02-16T23:00:18.983Z,2.51
2019-02-16T23:02:47.567Z,2.56
2019-02-16T23:05:15.990Z,2.64
2019-02-16T23:07:44.433Z,2.52
2019-02-16T23:10:13.097Z,2.38
2019-02-16T23:12:41.545Z,2.24
2019-02-16T23:15:11.238Z,2.14
2019-02-16T23:17:39.757Z,2.15
2019-02-16T23:20:10.595Z,2.19
2019-02-16T23:22:39.114Z,2.27
2019-02-16T23:25:08.759Z,2.28
2019-02-16T23:27:37.219Z,2.30
2019-02-16T23:30:10.541Z,2.35
2019-02-16T23:32:38.989Z,2.20
2019-02-16T23:35:08.547Z,2.05
2019-02-16T23:37:37.009Z,1.91
2019-02-16T23:40:07.828Z,1.72
2019-02-16T23:42:36.266Z,1.54
2019-02-16T23:45:07.297Z,1.45
2019-02-16T23:47:35.827Z,1.40
2019-02-16T23:50:06.462Z,1.44
2019-02-16T23:52:34.985Z,1.51
2019-02-16T23:55:04.453Z,1.59
2019-02-16T23:57:32.896Z,1.56
